createdAt,value
2023-01-17T00:02:20.690Z,79.54
2023-01-17T00:05:06.473Z,79.61
2023-01-17T00:07:52.401Z,79.70
2023-01-17T00:10:21.500Z,79.97
2023-01-17T00:12:50.536Z,80.70
2023-01-17T00:15:19.881Z,80.22
2023-01-17T00:17:47.641Z,79.43
2023-01-17T00:20:34.526Z,79.01
2023-01-17T00:23:20.481Z,79.87
2023-01-17T00:26:05.568Z,80.12
2023-01-17T00:28:37.803Z,80.71
2023-01-17T00:31:05.939Z,81.51
2023-01-17T00:33:33.226Z,81.29
2023-01-17T00:36:01.042Z,81.39
2023-01-17T00:38:30.764Z,80.79
2023-01-17T00:41:09.785Z,81.11
2023-01-17T00:43:56.065Z,80.52
2023-01-17T00:46:41.576Z,79.26
2023-01-17T00:49:27.695Z,79.65
2023-01-17T00:52:13.448Z,79.61
2023-01-17T00:54:58.894Z,79.55
2023-01-17T00:57:44.584Z,79.64
2023-01-17T01:00:31.218Z,79.19
2023-01-17T01:03:17.784Z,78.87
2023-01-17T01:06:03.315Z,78.89
2023-01-17T01:08:49.301Z,78.85
2023-01-17T01:11:38.115Z,78.84
2023-01-17T01:14:25.818Z,78.73
2023-01-17T01:17:11.539Z,78.25
2023-01-17T01:19:57.216Z,78.62
2023-01-17T01:22:42.983Z,78.58
2023-01-17T01:25:28.515Z,78.54
2023-01-17T01:28:25.185Z,78.40
2023-01-17T01:31:10.821Z,78.79
2023-01-17T01:33:38.054Z,78.88
2023-01-17T01:36:07.974Z,79.74
2023-01-17T01:38:35.308Z,79.30
2023-01-17T01:41:02.918Z,79.21
2023-01-17T01:43:48.869Z,79.69
2023-01-17T01:46:38.673Z,79.90
2023-01-17T01:49:05.534Z,80.43
2023-01-17T01:51:36.383Z,79.88
2023-01-17T01:54:25.758Z,80.05
2023-01-17T01:56:53.677Z,79.58
2023-01-17T01:59:21.496Z,79.85
2023-01-17T02:01:50.675Z,79.76
2023-01-17T02:04:21.018Z,80.29
2023-01-17T02:06:50.348Z,79.67
2023-01-17T02:09:18.307Z,79.58
2023-01-17T02:11:46.559Z,78.94
2023-01-17T02:14:18.105Z,78.75
2023-01-17T02:17:13.301Z,78.34
2023-01-17T02:19:59.084Z,77.73
2023-01-17T02:22:59.427Z,78.05
2023-01-17T02:25:38.280Z,78.50
2023-01-17T02:28:24.474Z,78.12
2023-01-17T02:31:17.878Z,77.86
2023-01-17T02:34:04.948Z,78.16
2023-01-17T02:37:04.088Z,77.76
2023-01-17T02:39:37.275Z,78.11
2023-01-17T02:42:10.073Z,78.15
2023-01-17T02:44:44.534Z,78.73
2023-01-17T02:47:26.432Z,79.49
2023-01-17T02:49:56.913Z,79.94
2023-01-17T02:52:30.819Z,80.28
2023-01-17T02:55:16.892Z,80.67
2023-01-17T02:57:49.880Z,80.28
2023-01-17T03:00:29.073Z,80.08
2023-01-17T03:03:07.197Z,79.57
2023-01-17T03:06:02.372Z,79.68
2023-01-17T03:08:32.170Z,80.14
2023-01-17T03:10:59.180Z,80.12
2023-01-17T03:13:26.167Z,80.83
2023-01-17T03:15:53.296Z,81.17
2023-01-17T03:18:20.211Z,81.07
2023-01-17T03:20:47.296Z,81.19
2023-01-17T03:23:14.334Z,80.85
2023-01-17T03:25:42.572Z,80.78
2023-01-17T03:28:11.230Z,80.96
2023-01-17T03:30:40.618Z,81.28
2023-01-17T03:33:08.177Z,81.39
2023-01-17T03:35:35.331Z,82.59
2023-01-17T03:38:02.315Z,82.08
2023-01-17T03:40:31.988Z,81.76
2023-01-17T03:42:59.145Z,81.92
2023-01-17T03:45:29.236Z,81.72
2023-01-17T03:47:58.626Z,81.71
2023-01-17T03:50:26.400Z,81.84
2023-01-17T03:52:53.555Z,81.64
2023-01-17T03:55:20.673Z,82.11
2023-01-17T03:57:47.702Z,82.16
2023-01-17T04:00:15.155Z,82.39
2023-01-17T04:02:44.928Z,82.97
2023-01-17T04:05:17.616Z,82.83
2023-01-17T04:07:46.156Z,82.57
2023-01-17T04:10:13.251Z,82.17
2023-01-17T04:12:40.512Z,82.67
2023-01-17T04:15:08.300Z,83.20
2023-01-17T04:17:35.639Z,83.55
2023-01-17T04:20:03.297Z,83.99
2023-01-17T04:22:32.612Z,84.46
2023-01-17T04:25:00.251Z,84.75
2023-01-17T04:27:27.515Z,84.27
2023-01-17T04:30:02.275Z,84.82
2023-01-17T04:32:32.342Z,84.19
2023-01-17T04:34:59.392Z,84.94
2023-01-17T04:37:29.332Z,84.69
2023-01-17T04:39:56.705Z,84.91
2023-01-17T04:42:26.921Z,85.10
2023-01-17T04:44:57.802Z,85.47
2023-01-17T04:47:24.937Z,85.00
2023-01-17T04:49:52.373Z,84.74
2023-01-17T04:52:20.904Z,84.82
2023-01-17T04:54:49.612Z,84.76
2023-01-17T04:57:20.509Z,84.23
2023-01-17T04:59:47.904Z,84.34
2023-01-17T05:02:17.845Z,84.19
2023-01-17T05:04:45.215Z,84.68
2023-01-17T05:07:12.415Z,84.61
2023-01-17T05:09:40.017Z,84.50
2023-01-17T05:12:07.230Z,84.65
2023-01-17T05:14:37.197Z,84.69
2023-01-17T05:17:04.762Z,84.81
2023-01-17T05:19:31.973Z,84.65
2023-01-17T05:22:04.415Z,84.49
2023-01-17T05:24:32.503Z,83.68
2023-01-17T05:27:03.377Z,83.85
2023-01-17T05:29:36.133Z,83.85
2023-01-17T05:32:12.827Z,85.27
2023-01-17T05:34:40.306Z,84.37
2023-01-17T05:37:07.420Z,80.09
2023-01-17T05:45:52.467Z,67.21
2023-01-17T05:51:19.382Z,65.25
2023-01-17T05:53:51.503Z,64.46
2023-01-17T05:56:31.185Z,64.40
2023-01-17T05:59:06.303Z,63.58
2023-01-17T06:01:42.332Z,63.02
2023-01-17T06:04:10.016Z,61.70
2023-01-17T06:06:37.185Z,61.80
2023-01-17T06:09:04.579Z,61.04
2023-01-17T06:11:31.911Z,61.01
2023-01-17T06:13:59.265Z,60.94
2023-01-17T06:16:28.906Z,59.69
2023-01-17T06:18:56.403Z,59.46
2023-01-17T06:21:23.721Z,59.88
2023-01-17T06:23:50.917Z,59.04
2023-01-17T06:26:22.355Z,59.34
2023-01-17T06:28:56.627Z,59.05
2023-01-17T06:31:23.921Z,58.80
2023-01-17T06:33:51.383Z,58.24
2023-01-17T06:36:31.320Z,58.54
2023-01-17T06:39:00.685Z,58.43
2023-01-17T06:41:30.722Z,57.66
2023-01-17T06:44:05.289Z,57.86
2023-01-17T06:46:36.573Z,58.19
2023-01-17T06:49:06.762Z,57.69
2023-01-17T06:51:33.908Z,57.41
2023-01-17T06:54:01.408Z,57.23
2023-01-17T06:56:31.777Z,56.74
2023-01-17T06:58:58.932Z,56.54
2023-01-17T07:01:26.324Z,57.51
2023-01-17T07:03:53.656Z,56.32
2023-01-17T07:06:21.428Z,56.22
2023-01-17T07:08:49.162Z,56.68
2023-01-17T07:11:16.429Z,55.48
2023-01-17T07:13:43.554Z,56.06
2023-01-17T07:16:10.554Z,55.36
2023-01-17T07:18:39.886Z,55.97
2023-01-17T07:21:16.068Z,55.41
2023-01-17T07:23:43.243Z,55.34
2023-01-17T07:26:13.528Z,55.51
2023-01-17T07:28:40.623Z,56.99
2023-01-17T07:31:08.686Z,58.73
2023-01-17T07:33:36.034Z,57.70
2023-01-17T07:36:05.445Z,58.78
2023-01-17T07:38:32.612Z,60.12
2023-01-17T07:41:00.468Z,59.73
2023-01-17T07:43:27.697Z,58.11
2023-01-17T07:45:55.042Z,57.11
2023-01-17T07:48:25.562Z,55.64
2023-01-17T07:50:56.363Z,54.76
2023-01-17T07:53:24.922Z,54.67
2023-01-17T07:55:52.102Z,53.73
2023-01-17T07:58:26.101Z,53.13
2023-01-17T08:00:53.144Z,51.76
2023-01-17T08:03:20.357Z,51.76
2023-01-17T08:05:57.865Z,51.53
2023-01-17T08:08:25.295Z,51.85
2023-01-17T08:10:54.457Z,51.00
2023-01-17T08:13:24.575Z,52.05
2023-01-17T08:16:00.511Z,50.84
2023-01-17T08:18:28.645Z,51.58
2023-01-17T08:20:56.604Z,50.57
2023-01-17T08:23:28.552Z,51.07
2023-01-17T08:26:00.943Z,50.11
2023-01-17T08:28:28.188Z,50.95
2023-01-17T08:30:56.577Z,49.71
2023-01-17T08:33:23.742Z,49.56
2023-01-17T08:35:57.258Z,49.25
2023-01-17T08:38:24.272Z,49.47
2023-01-17T08:40:51.500Z,49.72
2023-01-17T08:43:18.492Z,50.74
2023-01-17T08:45:47.372Z,50.20
2023-01-17T08:48:15.363Z,50.76
2023-01-17T08:50:44.274Z,50.62
2023-01-17T08:53:12.573Z,49.85
2023-01-17T08:55:41.298Z,50.36
2023-01-17T08:58:13.128Z,50.83
2023-01-17T09:00:40.392Z,50.80
2023-01-17T09:03:10.672Z,49.08
2023-01-17T09:05:40.557Z,49.69
2023-01-17T09:08:07.965Z,49.33
2023-01-17T09:10:35.274Z,48.71
2023-01-17T09:13:02.639Z,48.86
2023-01-17T09:15:30.388Z,48.22
2023-01-17T09:17:58.883Z,48.43
2023-01-17T09:20:30.274Z,48.14
2023-01-17T09:23:00.139Z,48.41
2023-01-17T09:25:28.643Z,47.73
2023-01-17T09:27:58.030Z,47.99
2023-01-17T09:30:25.818Z,47.99
2023-01-17T09:32:55.970Z,47.62
2023-01-17T09:35:25.828Z,47.50
2023-01-17T09:37:57.257Z,47.91
2023-01-17T09:40:26.825Z,48.98
2023-01-17T09:42:59.076Z,48.83
2023-01-17T09:45:29.490Z,48.44
2023-01-17T09:47:56.964Z,48.78
2023-01-17T09:50:40.604Z,48.33
2023-01-17T09:53:13.660Z,48.22
2023-01-17T09:55:59.059Z,48.17
2023-01-17T09:58:35.926Z,48.94
2023-01-17T10:01:15.935Z,49.28
2023-01-17T10:03:49.353Z,49.12
2023-01-17T10:06:20.624Z,48.19
2023-01-17T10:09:00.879Z,48.28
2023-01-17T10:11:41.560Z,48.34
2023-01-17T10:14:18.148Z,48.71
2023-01-17T10:16:53.251Z,49.62
2023-01-17T10:19:53.693Z,48.46
2023-01-17T10:22:29.465Z,48.67
2023-01-17T10:25:05.338Z,48.94
2023-01-17T10:27:38.933Z,49.01
2023-01-17T10:30:25.786Z,48.74
2023-01-17T10:32:53.212Z,48.80
2023-01-17T10:35:27.938Z,47.44
2023-01-17T10:37:57.030Z,47.51
2023-01-17T10:40:32.087Z,46.93
2023-01-17T10:43:40.499Z,47.09
2023-01-17T10:46:19.700Z,47.21
2023-01-17T10:48:49.755Z,47.40
2023-01-17T10:51:22.131Z,47.01
2023-01-17T10:54:17.545Z,47.14
2023-01-17T10:56:44.666Z,46.63
2023-01-17T10:59:27.462Z,46.33
2023-01-17T11:01:54.784Z,46.97
2023-01-17T11:04:23.918Z,46.97
2023-01-17T11:07:27.202Z,46.30
2023-01-17T11:09:58.091Z,46.35
2023-01-17T11:12:25.067Z,46.13
2023-01-17T11:15:06.597Z,46.88
2023-01-17T11:17:34.192Z,46.08
2023-01-17T11:20:36.465Z,46.77
2023-01-17T11:23:30.294Z,46.04
2023-01-17T11:26:07.732Z,45.93
2023-01-17T11:28:39.681Z,45.75
2023-01-17T11:31:31.472Z,46.00
2023-01-17T11:34:15.849Z,45.49
2023-01-17T11:36:43.035Z,45.99
2023-01-17T11:39:19.189Z,44.96
2023-01-17T11:41:52.216Z,44.83
2023-01-17T11:44:29.883Z,45.11
2023-01-17T11:47:12.305Z,45.32
2023-01-17T11:49:44.569Z,45.25
2023-01-17T11:52:18.197Z,45.13
2023-01-17T11:54:47.383Z,45.29
2023-01-17T11:57:24.247Z,45.82
2023-01-17T11:59:56.210Z,44.99
2023-01-17T12:02:47.568Z,44.83
2023-01-17T12:05:26.957Z,45.61
2023-01-17T12:08:09.202Z,45.13
2023-01-17T12:10:59.451Z,45.78
2023-01-17T12:14:01.588Z,45.41
2023-01-17T12:16:56.371Z,45.22
2023-01-17T12:19:32.348Z,45.42
2023-01-17T12:22:13.093Z,45.16
2023-01-17T12:24:46.207Z,45.53
2023-01-17T12:27:34.805Z,45.88
2023-01-17T12:30:04.736Z,45.56
2023-01-17T12:32:40.640Z,45.35
2023-01-17T12:35:15.626Z,44.83
2023-01-17T12:37:45.301Z,44.23
2023-01-17T12:40:40.219Z,44.36
2023-01-17T12:43:27.303Z,44.46
2023-01-17T12:45:54.803Z,44.14
2023-01-17T12:48:23.573Z,43.32
2023-01-17T12:51:14.399Z,43.20
2023-01-17T12:53:55.303Z,43.86
2023-01-17T12:56:30.342Z,43.48
2023-01-17T12:59:16.130Z,43.78
2023-01-17T13:01:57.585Z,43.63
2023-01-17T13:04:28.968Z,43.66
2023-01-17T13:06:58.961Z,43.70
2023-01-17T13:09:35.566Z,43.88
2023-01-17T13:12:16.593Z,44.14
2023-01-17T13:14:46.475Z,43.55
2023-01-17T13:17:24.189Z,44.11
2023-01-17T13:20:06.577Z,44.07
2023-01-17T13:22:33.976Z,43.99
2023-01-17T13:25:12.878Z,43.59
2023-01-17T13:27:56.063Z,43.95
2023-01-17T13:30:43.392Z,42.93
2023-01-17T13:33:40.893Z,43.05
2023-01-17T13:36:30.035Z,42.18
2023-01-17T13:39:36.715Z,42.49
2023-01-17T13:42:48.966Z,42.86
2023-01-17T13:45:21.951Z,42.93
2023-01-17T13:47:50.323Z,43.14
2023-01-17T13:50:32.611Z,42.84
2023-01-17T13:53:01.136Z,43.60
2023-01-17T13:55:53.461Z,43.67
2023-01-17T13:58:30.633Z,43.62
2023-01-17T14:00:57.884Z,43.53
2023-01-17T14:03:47.680Z,43.71
2023-01-17T14:06:36.160Z,43.33
2023-01-17T14:09:18.676Z,43.95
2023-01-17T14:12:03.467Z,43.49
2023-01-17T14:14:45.521Z,44.28
2023-01-17T14:17:18.334Z,43.64
2023-01-17T14:19:50.780Z,43.55
2023-01-17T14:22:20.055Z,44.47
2023-01-17T14:25:11.870Z,44.49
2023-01-17T14:27:43.948Z,44.73
2023-01-17T14:30:17.826Z,45.16
2023-01-17T14:33:08.813Z,45.28
2023-01-17T14:35:41.215Z,45.56
2023-01-17T14:38:26.039Z,46.26
2023-01-17T14:40:56.520Z,46.67
2023-01-17T14:43:46.509Z,47.13
2023-01-17T14:46:18.792Z,47.80
2023-01-17T14:48:46.358Z,48.59
2023-01-17T14:51:15.247Z,48.22
2023-01-17T14:53:59.176Z,49.10
2023-01-17T14:56:28.267Z,49.68
2023-01-17T14:59:24.619Z,50.75
2023-01-17T15:02:06.521Z,51.45
2023-01-17T15:04:39.767Z,51.28
2023-01-17T15:07:07.265Z,52.23
2023-01-17T15:09:36.872Z,51.73
2023-01-17T15:12:04.760Z,52.04
2023-01-17T15:14:37.508Z,51.97
2023-01-17T15:17:14.162Z,53.49
2023-01-17T15:19:42.984Z,53.27
2023-01-17T15:22:10.558Z,53.03
2023-01-17T15:24:42.015Z,53.65
2023-01-17T15:27:13.000Z,52.97
2023-01-17T15:29:40.615Z,54.07
2023-01-17T15:32:08.265Z,54.15
2023-01-17T15:34:40.534Z,54.59
2023-01-17T15:37:33.857Z,54.21
2023-01-17T15:40:12.052Z,54.94
2023-01-17T15:42:39.616Z,54.74
2023-01-17T15:45:09.552Z,55.10
2023-01-17T15:47:41.244Z,54.81
2023-01-17T15:50:20.472Z,55.14
2023-01-17T15:52:51.076Z,55.73
2023-01-17T15:55:33.099Z,56.37
2023-01-17T15:58:00.582Z,55.64
2023-01-17T16:00:37.682Z,55.75
2023-01-17T16:03:34.183Z,56.52
2023-01-17T16:06:03.035Z,55.91
2023-01-17T16:08:40.187Z,56.73
2023-01-17T16:11:08.640Z,56.60
2023-01-17T16:13:38.818Z,56.12
2023-01-17T16:16:14.124Z,56.38
2023-01-17T16:18:41.352Z,56.28
2023-01-17T16:21:20.570Z,56.48
2023-01-17T16:23:48.011Z,56.64
2023-01-17T16:26:15.311Z,57.47
2023-01-17T16:28:44.931Z,57.60
2023-01-17T16:31:12.034Z,58.06
2023-01-17T16:33:39.630Z,58.05
2023-01-17T16:36:06.867Z,58.81
2023-01-17T16:38:33.747Z,58.54
2023-01-17T16:41:03.980Z,58.82
2023-01-17T16:43:30.850Z,59.04
2023-01-17T16:45:58.233Z,59.33
2023-01-17T16:48:27.635Z,59.10
2023-01-17T16:50:56.873Z,59.58
2023-01-17T16:53:28.309Z,59.57
2023-01-17T16:55:58.517Z,59.69
2023-01-17T16:58:25.908Z,59.87
2023-01-17T17:00:55.544Z,59.89
2023-01-17T17:03:23.005Z,60.22
2023-01-17T17:06:00.915Z,60.73
2023-01-17T17:08:29.730Z,60.91
2023-01-17T17:11:17.567Z,61.18
2023-01-17T17:13:46.306Z,61.68
2023-01-17T17:16:21.494Z,61.75
2023-01-17T17:18:54.273Z,61.74
2023-01-17T17:21:21.406Z,61.97
2023-01-17T17:23:51.128Z,62.66
2023-01-17T17:26:18.674Z,62.93
2023-01-17T17:28:45.673Z,63.41
2023-01-17T17:31:15.868Z,63.41
2023-01-17T17:33:46.133Z,63.19
2023-01-17T17:36:13.375Z,63.47
2023-01-17T17:39:00.769Z,63.32
2023-01-17T17:41:29.646Z,62.94
2023-01-17T17:43:57.227Z,62.98
2023-01-17T17:46:25.561Z,63.43
2023-01-17T17:48:56.110Z,63.48
2023-01-17T17:51:26.325Z,64.13
2023-01-17T17:54:01.932Z,63.65
2023-01-17T17:56:32.283Z,63.80
2023-01-17T17:59:00.469Z,63.66
2023-01-17T18:01:31.272Z,63.38
2023-01-17T18:04:02.140Z,63.71
2023-01-17T18:06:29.503Z,64.16
2023-01-17T18:08:56.601Z,64.12
2023-01-17T18:11:26.285Z,64.21
2023-01-17T18:13:55.152Z,63.42
2023-01-17T18:16:28.327Z,64.47
2023-01-17T18:18:57.065Z,64.21
2023-01-17T18:21:29.530Z,64.08
2023-01-17T18:24:09.341Z,62.97
2023-01-17T18:26:42.158Z,63.62
2023-01-17T18:29:11.267Z,63.26
2023-01-17T18:31:41.421Z,62.30
2023-01-17T18:34:14.158Z,61.56
2023-01-17T18:36:41.538Z,60.59
2023-01-17T18:39:13.940Z,60.81
2023-01-17T18:41:41.257Z,60.54
2023-01-17T18:44:09.028Z,59.89
2023-01-17T18:46:36.768Z,59.69
2023-01-17T18:49:06.877Z,59.46
2023-01-17T18:51:36.865Z,60.30
2023-01-17T18:54:06.929Z,60.34
2023-01-17T18:56:35.443Z,60.92
2023-01-17T18:59:05.973Z,61.91
2023-01-17T19:01:36.480Z,61.96
2023-01-17T19:04:05.424Z,62.25
2023-01-17T19:06:35.778Z,61.92
2023-01-17T19:09:07.713Z,61.80
2023-01-17T19:11:41.999Z,61.65
2023-01-17T19:14:10.401Z,61.47
2023-01-17T19:16:41.430Z,61.00
2023-01-17T19:19:11.031Z,60.47
2023-01-17T19:21:38.367Z,60.37
2023-01-17T19:24:10.358Z,60.19
2023-01-17T19:26:37.505Z,59.64
2023-01-17T19:29:07.349Z,59.18
2023-01-17T19:31:46.461Z,58.68
2023-01-17T19:34:50.676Z,58.85
2023-01-17T19:37:21.776Z,59.20
2023-01-17T19:39:51.634Z,58.82
2023-01-17T19:42:19.408Z,58.70
2023-01-17T19:44:46.774Z,56.92
2023-01-17T19:47:19.176Z,54.45
2023-01-17T19:49:46.247Z,54.04
2023-01-17T19:52:13.309Z,52.33
2023-01-17T19:54:41.115Z,53.20
2023-01-17T19:57:10.266Z,53.59
2023-01-17T19:59:37.171Z,52.84
2023-01-17T20:02:04.653Z,52.85
2023-01-17T20:04:32.114Z,52.40
2023-01-17T20:06:59.065Z,51.43
2023-01-17T20:09:25.926Z,50.88
2023-01-17T20:11:54.049Z,50.92
2023-01-17T20:14:30.299Z,50.33
2023-01-17T20:16:57.651Z,50.40
2023-01-17T20:19:30.005Z,50.41
2023-01-17T20:21:57.083Z,51.41
2023-01-17T20:24:24.322Z,51.28
2023-01-17T20:26:51.852Z,51.20
2023-01-17T20:29:18.997Z,51.43
2023-01-17T20:31:46.549Z,50.91
2023-01-17T20:34:14.480Z,51.01
2023-01-17T20:36:42.313Z,51.45
2023-01-17T20:39:11.259Z,50.45
2023-01-17T20:41:39.922Z,49.93
2023-01-17T20:44:10.845Z,49.61
2023-01-17T20:46:41.283Z,49.20
2023-01-17T20:49:16.417Z,48.17
2023-01-17T20:51:44.585Z,48.40
2023-01-17T20:54:19.274Z,47.95
2023-01-17T20:56:47.697Z,47.55
2023-01-17T20:59:20.425Z,47.45
2023-01-17T21:01:47.880Z,47.15
2023-01-17T21:04:16.729Z,46.85
2023-01-17T21:06:51.796Z,46.79
2023-01-17T21:09:21.479Z,47.20
2023-01-17T21:11:49.278Z,47.14
2023-01-17T21:14:16.919Z,47.23
2023-01-17T21:16:54.529Z,47.28
2023-01-17T21:19:22.725Z,47.53
2023-01-17T21:21:53.346Z,48.06
2023-01-17T21:24:20.425Z,47.30
2023-01-17T21:26:47.601Z,47.76
2023-01-17T21:29:16.794Z,47.60
2023-01-17T21:31:44.043Z,47.77
2023-01-17T21:34:15.699Z,48.33
2023-01-17T21:36:43.374Z,48.68
2023-01-17T21:39:16.359Z,49.01
2023-01-17T21:41:48.205Z,49.22
2023-01-17T21:44:22.529Z,49.06
2023-01-17T21:46:56.261Z,49.51
2023-01-17T21:49:26.341Z,49.40
2023-01-17T21:51:53.595Z,48.84
2023-01-17T21:54:45.717Z,49.39
2023-01-17T21:57:33.016Z,49.72
2023-01-17T22:00:00.365Z,49.62
2023-01-17T22:02:27.901Z,50.02
2023-01-17T22:04:56.326Z,49.82
2023-01-17T22:07:30.667Z,49.85
2023-01-17T22:09:57.721Z,49.11
2023-01-17T22:12:24.924Z,49.33
2023-01-17T22:14:52.802Z,49.27
2023-01-17T22:17:21.196Z,49.17
2023-01-17T22:19:48.249Z,49.72
2023-01-17T22:22:15.408Z,49.38
2023-01-17T22:24:42.528Z,49.37
2023-01-17T22:27:13.778Z,49.38
2023-01-17T22:29:44.324Z,48.63
2023-01-17T22:32:11.326Z,47.83
2023-01-17T22:34:47.017Z,47.83
2023-01-17T22:37:14.812Z,48.16
2023-01-17T22:39:47.911Z,48.68
2023-01-17T22:42:33.023Z,48.96
2023-01-17T22:45:00.719Z,48.42
2023-01-17T22:47:27.692Z,48.43
2023-01-17T22:49:54.474Z,47.75
2023-01-17T22:52:21.437Z,47.69
2023-01-17T22:54:48.332Z,48.46
2023-01-17T22:57:15.194Z,48.35
2023-01-17T22:59:43.240Z,48.10
2023-01-17T23:02:12.809Z,48.79
2023-01-17T23:04:41.644Z,48.64
2023-01-17T23:07:08.490Z,48.27
2023-01-17T23:09:39.444Z,48.87
2023-01-17T23:12:06.973Z,48.88
2023-01-17T23:14:56.347Z,48.68
2023-01-17T23:17:46.694Z,48.71
2023-01-17T23:20:15.029Z,48.93
2023-01-17T23:22:42.936Z,49.04
2023-01-17T23:25:12.321Z,48.92
2023-01-17T23:28:03.911Z,48.89
2023-01-17T23:30:37.730Z,48.82
2023-01-17T23:33:07.538Z,48.67
2023-01-17T23:35:41.475Z,49.48
2023-01-17T23:38:29.420Z,48.87
2023-01-17T23:41:26.847Z,48.64
2023-01-17T23:44:01.009Z,49.15
2023-01-17T23:46:30.269Z,48.76
2023-01-17T23:48:57.622Z,48.64
2023-01-17T23:51:25.979Z,48.25
2023-01-17T23:54:05.532Z,48.16
2023-01-17T23:56:32.817Z,48.46
2023-01-17T23:59:01.600Z,48.27
